sensor_id;sensor_type;location;lat;lon;timestamp;P1;durP1;ratioP1;P2;durP2;ratioP2
577;SDS011;275;48.492;9.214;2024-03-22T00:00:39;22.10;;;18.83;;
577;SDS011;275;48.492;9.214;2024-03-22T00:03:07;21.90;;;19.60;;
577;SDS011;275;48.492;9.214;2024-03-22T00:05:33;22.23;;;20.13;;
577;SDS011;275;48.492;9.214;2024-03-22T00:08:00;23.38;;;21.25;;
577;SDS011;275;48.492;9.214;2024-03-22T00:10:26;21.83;;;19.83;;
577;SDS011;275;48.492;9.214;2024-03-22T00:12:53;22.73;;;20.80;;
577;SDS011;275;48.492;9.214;2024-03-22T00:15:19;22.47;;;20.37;;
577;SDS011;275;48.492;9.214;2024-03-22T00:17:45;22.80;;;20.90;;
577;SDS011;275;48.492;9.214;2024-03-22T00:20:13;21.50;;;19.30;;
577;SDS011;275;48.492;9.214;2024-03-22T00:22:39;22.30;;;20.30;;
577;SDS011;275;48.492;9.214;2024-03-22T00:25:05;22.03;;;20.00;;
577;SDS011;275;48.492;9.214;2024-03-22T00:27:33;20.23;;;18.42;;
577;SDS011;275;48.492;9.214;2024-03-22T00:29:59;21.10;;;19.20;;
577;SDS011;275;48.492;9.214;2024-03-22T00:32:26;21.80;;;19.60;;
577;SDS011;275;48.492;9.214;2024-03-22T00:34:52;20.30;;;18.50;;
577;SDS011;275;48.492;9.214;2024-03-22T00:37:20;21.95;;;19.85;;
577;SDS011;275;48.492;9.214;2024-03-22T00:39:46;20.52;;;18.73;;
577;SDS011;275;48.492;9.214;2024-03-22T00:42:13;19.70;;;17.70;;
577;SDS011;275;48.492;9.214;2024-03-22T00:44:38;19.13;;;17.43;;
577;SDS011;275;48.492;9.214;2024-03-22T00:47:06;18.27;;;16.40;;
577;SDS011;275;48.492;9.214;2024-03-22T00:49:32;19.00;;;17.20;;
577;SDS011;275;48.492;9.214;2024-03-22T00:51:59;17.25;;;15.65;;
577;SDS011;275;48.492;9.214;2024-03-22T00:54:27;17.05;;;15.38;;
577;SDS011;275;48.492;9.214;2024-03-22T00:56:53;18.38;;;16.67;;
577;SDS011;275;48.492;9.214;2024-03-22T00:59:19;16.53;;;14.93;;
577;SDS011;275;48.492;9.214;2024-03-22T01:01:46;15.50;;;14.10;;
577;SDS011;275;48.492;9.214;2024-03-22T01:04:12;16.43;;;14.83;;
577;SDS011;275;48.492;9.214;2024-03-22T01:06:38;17.02;;;15.50;;
577;SDS011;275;48.492;9.214;2024-03-22T01:09:05;16.80;;;15.30;;
577;SDS011;275;48.492;9.214;2024-03-22T01:11:33;15.98;;;14.45;;
577;SDS011;275;48.492;9.214;2024-03-22T01:13:59;16.30;;;14.80;;
577;SDS011;275;48.492;9.214;2024-03-22T01:16:26;15.95;;;14.48;;
577;SDS011;275;48.492;9.214;2024-03-22T01:18:52;17.77;;;15.97;;
577;SDS011;275;48.492;9.214;2024-03-22T01:21:19;16.05;;;14.55;;
577;SDS011;275;48.492;9.214;2024-03-22T01:23:49;15.52;;;14.13;;
577;SDS011;275;48.492;9.214;2024-03-22T01:26:16;16.35;;;14.65;;
577;SDS011;275;48.492;9.214;2024-03-22T01:28:44;17.23;;;15.43;;
577;SDS011;275;48.492;9.214;2024-03-22T01:31:10;16.10;;;14.60;;
577;SDS011;275;48.492;9.214;2024-03-22T01:33:36;16.30;;;15.00;;
577;SDS011;275;48.492;9.214;2024-03-22T01:36:03;17.25;;;15.65;;
577;SDS011;275;48.492;9.214;2024-03-22T01:38:30;15.68;;;14.27;;
577;SDS011;275;48.492;9.214;2024-03-22T01:40:57;15.60;;;14.20;;
577;SDS011;275;48.492;9.214;2024-03-22T01:43:22;16.40;;;14.93;;
577;SDS011;275;48.492;9.214;2024-03-22T01:45:51;16.35;;;14.65;;
577;SDS011;275;48.492;9.214;2024-03-22T01:48:17;16.15;;;14.30;;
577;SDS011;275;48.492;9.214;2024-03-22T01:50:43;15.98;;;14.45;;
577;SDS011;275;48.492;9.214;2024-03-22T01:53:10;15.98;;;14.57;;
577;SDS011;275;48.492;9.214;2024-03-22T01:55:37;15.75;;;14.25;;
577;SDS011;275;48.492;9.214;2024-03-22T01:58:03;16.88;;;15.38;;
577;SDS011;275;48.492;9.214;2024-03-22T02:00:31;14.63;;;13.13;;
577;SDS011;275;48.492;9.214;2024-03-22T02:02:58;16.37;;;14.83;;
577;SDS011;275;48.492;9.214;2024-03-22T02:05:25;17.05;;;15.35;;
577;SDS011;275;48.492;9.214;2024-03-22T02:07:51;14.27;;;12.97;;
577;SDS011;275;48.492;9.214;2024-03-22T02:10:18;17.05;;;15.45;;
577;SDS011;275;48.492;9.214;2024-03-22T02:12:44;14.85;;;13.60;;
577;SDS011;275;48.492;9.214;2024-03-22T02:15:11;15.40;;;14.00;;
577;SDS011;275;48.492;9.214;2024-03-22T02:17:36;16.93;;;15.30;;
577;SDS011;275;48.492;9.214;2024-03-22T02:20:05;15.52;;;14.07;;
577;SDS011;275;48.492;9.214;2024-03-22T02:22:33;16.58;;;15.07;;
577;SDS011;275;48.492;9.214;2024-03-22T02:25:01;17.13;;;15.48;;
577;SDS011;275;48.492;9.214;2024-03-22T02:27:27;16.38;;;14.82;;
577;SDS011;275;48.492;9.214;2024-03-22T02:29:54;15.82;;;14.27;;
577;SDS011;275;48.492;9.214;2024-03-22T02:32:19;14.77;;;13.40;;
577;SDS011;275;48.492;9.214;2024-03-22T02:34:46;15.35;;;13.90;;
577;SDS011;275;48.492;9.214;2024-03-22T02:37:12;16.63;;;15.07;;
577;SDS011;275;48.492;9.214;2024-03-22T02:39:39;16.80;;;15.10;;
577;SDS011;275;48.492;9.214;2024-03-22T02:42:07;16.50;;;15.00;;
577;SDS011;275;48.492;9.214;2024-03-22T02:44:33;16.35;;;14.90;;
577;SDS011;275;48.492;9.214;2024-03-22T02:46:59;16.63;;;15.13;;
577;SDS011;275;48.492;9.214;2024-03-22T02:49:26;15.50;;;14.20;;
577;SDS011;275;48.492;9.214;2024-03-22T02:51:52;16.27;;;14.67;;
577;SDS011;275;48.492;9.214;2024-03-22T02:54:18;17.58;;;16.00;;
577;SDS011;275;48.492;9.214;2024-03-22T02:56:44;16.77;;;15.00;;
577;SDS011;275;48.492;9.214;2024-03-22T02:59:12;15.95;;;14.40;;
577;SDS011;275;48.492;9.214;2024-03-22T03:01:38;15.50;;;14.15;;
577;SDS011;275;48.492;9.214;2024-03-22T03:04:05;17.30;;;15.52;;
577;SDS011;275;48.492;9.214;2024-03-22T03:06:31;16.43;;;14.93;;
577;SDS011;275;48.492;9.214;2024-03-22T03:08:57;15.63;;;14.02;;
577;SDS011;275;48.492;9.214;2024-03-22T03:11:23;16.20;;;14.70;;
577;SDS011;275;48.492;9.214;2024-03-22T03:13:50;16.77;;;15.25;;
577;SDS011;275;48.492;9.214;2024-03-22T03:16:17;16.47;;;15.03;;
577;SDS011;275;48.492;9.214;2024-03-22T03:18:44;17.75;;;16.15;;
577;SDS011;275;48.492;9.214;2024-03-22T03:21:10;16.07;;;14.40;;
577;SDS011;275;48.492;9.214;2024-03-22T03:23:36;15.20;;;13.60;;
577;SDS011;275;48.492;9.214;2024-03-22T03:26:02;16.87;;;15.37;;
577;SDS011;275;48.492;9.214;2024-03-22T03:28:29;17.65;;;15.85;;
577;SDS011;275;48.492;9.214;2024-03-22T03:30:55;17.40;;;15.80;;
577;SDS011;275;48.492;9.214;2024-03-22T03:33:23;16.75;;;15.15;;
577;SDS011;275;48.492;9.214;2024-03-22T03:35:49;16.15;;;14.65;;
577;SDS011;275;48.492;9.214;2024-03-22T03:38:16;17.33;;;15.40;;
577;SDS011;275;48.492;9.214;2024-03-22T03:40:42;17.40;;;15.60;;
577;SDS011;275;48.492;9.214;2024-03-22T03:43:09;17.95;;;15.63;;
577;SDS011;275;48.492;9.214;2024-03-22T03:45:36;17.47;;;15.90;;
577;SDS011;275;48.492;9.214;2024-03-22T03:48:03;19.00;;;17.20;;
577;SDS011;275;48.492;9.214;2024-03-22T03:50:31;17.75;;;16.15;;
577;SDS011;275;48.492;9.214;2024-03-22T03:52:58;16.00;;;14.55;;
577;SDS011;275;48.492;9.214;2024-03-22T03:55:23;17.50;;;15.87;;
577;SDS011;275;48.492;9.214;2024-03-22T03:57:50;17.67;;;15.93;;
577;SDS011;275;48.492;9.214;2024-03-22T04:00:17;16.97;;;15.47;;
577;SDS011;275;48.492;9.214;2024-03-22T04:02:44;18.42;;;16.70;;
577;SDS011;275;48.492;9.214;2024-03-22T04:05:10;17.60;;;16.10;;
577;SDS011;275;48.492;9.214;2024-03-22T04:07:38;19.00;;;17.38;;
577;SDS011;275;48.492;9.214;2024-03-22T04:10:04;18.05;;;16.45;;
577;SDS011;275;48.492;9.214;2024-03-22T04:12:32;19.48;;;17.80;;
577;SDS011;275;48.492;9.214;2024-03-22T04:14:57;18.53;;;16.83;;
577;SDS011;275;48.492;9.214;2024-03-22T04:17:24;20.23;;;18.23;;
577;SDS011;275;48.492;9.214;2024-03-22T04:19:50;19.60;;;18.00;;
577;SDS011;275;48.492;9.214;2024-03-22T04:22:17;20.08;;;18.38;;
577;SDS011;275;48.492;9.214;2024-03-22T04:24:45;19.03;;;17.43;;
577;SDS011;275;48.492;9.214;2024-03-22T04:27:11;20.00;;;18.05;;
577;SDS011;275;48.492;9.214;2024-03-22T04:29:37;20.60;;;18.70;;
577;SDS011;275;48.492;9.214;2024-03-22T04:32:04;21.10;;;19.10;;
577;SDS011;275;48.492;9.214;2024-03-22T04:34:30;19.83;;;18.03;;
577;SDS011;275;48.492;9.214;2024-03-22T04:36:57;21.25;;;19.40;;
577;SDS011;275;48.492;9.214;2024-03-22T04:39:23;21.02;;;19.13;;
577;SDS011;275;48.492;9.214;2024-03-22T04:41:52;18.85;;;16.92;;
577;SDS011;275;48.492;9.214;2024-03-22T04:44:18;17.80;;;16.15;;
577;SDS011;275;48.492;9.214;2024-03-22T04:46:45;18.45;;;16.85;;
577;SDS011;275;48.492;9.214;2024-03-22T04:49:11;18.33;;;16.63;;
577;SDS011;275;48.492;9.214;2024-03-22T04:51:38;19.83;;;17.92;;
577;SDS011;275;48.492;9.214;2024-03-22T04:54:04;18.20;;;16.47;;
577;SDS011;275;48.492;9.214;2024-03-22T04:56:30;19.20;;;17.40;;
577;SDS011;275;48.492;9.214;2024-03-22T04:58:57;19.97;;;18.07;;
577;SDS011;275;48.492;9.214;2024-03-22T05:01:24;20.15;;;18.25;;
577;SDS011;275;48.492;9.214;2024-03-22T05:03:50;20.33;;;18.30;;
577;SDS011;275;48.492;9.214;2024-03-22T05:06:17;20.45;;;17.63;;
577;SDS011;275;48.492;9.214;2024-03-22T05:08:43;20.02;;;18.02;;
577;SDS011;275;48.492;9.214;2024-03-22T05:11:10;19.58;;;17.88;;
577;SDS011;275;48.492;9.214;2024-03-22T05:13:36;21.67;;;19.57;;
577;SDS011;275;48.492;9.214;2024-03-22T05:16:06;20.90;;;18.70;;
577;SDS011;275;48.492;9.214;2024-03-22T05:18:32;18.35;;;16.65;;
577;SDS011;275;48.492;9.214;2024-03-22T05:20:59;18.00;;;16.23;;
577;SDS011;275;48.492;9.214;2024-03-22T05:23:25;17.93;;;16.23;;
577;SDS011;275;48.492;9.214;2024-03-22T05:25:51;18.50;;;16.80;;
577;SDS011;275;48.492;9.214;2024-03-22T05:28:17;19.90;;;17.73;;
577;SDS011;275;48.492;9.214;2024-03-22T05:30:44;19.50;;;17.35;;
577;SDS011;275;48.492;9.214;2024-03-22T05:33:12;19.48;;;17.52;;
577;SDS011;275;48.492;9.214;2024-03-22T05:35:39;18.98;;;17.13;;
577;SDS011;275;48.492;9.214;2024-03-22T05:38:06;19.20;;;17.40;;
577;SDS011;275;48.492;9.214;2024-03-22T05:40:34;18.00;;;16.40;;
577;SDS011;275;48.492;9.214;2024-03-22T05:43:01;18.60;;;16.90;;
577;SDS011;275;48.492;9.214;2024-03-22T05:45:28;19.35;;;17.40;;
577;SDS011;275;48.492;9.214;2024-03-22T05:47:54;19.60;;;17.50;;
577;SDS011;275;48.492;9.214;2024-03-22T05:50:22;19.30;;;17.30;;
577;SDS011;275;48.492;9.214;2024-03-22T05:52:48;18.70;;;17.15;;
577;SDS011;275;48.492;9.214;2024-03-22T05:55:15;17.05;;;15.50;;
577;SDS011;275;48.492;9.214;2024-03-22T05:57:40;21.27;;;16.90;;
577;SDS011;275;48.492;9.214;2024-03-22T06:00:07;17.70;;;16.15;;
577;SDS011;275;48.492;9.214;2024-03-22T06:02:33;17.67;;;15.00;;
577;SDS011;275;48.492;9.214;2024-03-22T06:05:00;16.88;;;15.18;;
577;SDS011;275;48.492;9.214;2024-03-22T06:07:27;15.73;;;14.27;;
577;SDS011;275;48.492;9.214;2024-03-22T06:09:55;17.15;;;15.65;;
577;SDS011;275;48.492;9.214;2024-03-22T06:12:21;15.70;;;14.00;;
577;SDS011;275;48.492;9.214;2024-03-22T06:14:48;16.08;;;14.52;;
577;SDS011;275;48.492;9.214;2024-03-22T06:17:15;16.13;;;14.60;;
577;SDS011;275;48.492;9.214;2024-03-22T06:19:42;15.45;;;13.90;;
577;SDS011;275;48.492;9.214;2024-03-22T06:22:08;14.50;;;13.20;;
577;SDS011;275;48.492;9.214;2024-03-22T06:24:36;14.50;;;13.13;;
577;SDS011;275;48.492;9.214;2024-03-22T06:27:02;16.38;;;14.82;;
577;SDS011;275;48.492;9.214;2024-03-22T06:29:29;15.02;;;13.55;;
577;SDS011;275;48.492;9.214;2024-03-22T06:31:55;14.63;;;13.13;;
577;SDS011;275;48.492;9.214;2024-03-22T06:34:21;14.55;;;13.25;;
577;SDS011;275;48.492;9.214;2024-03-22T06:36:47;13.90;;;12.33;;
577;SDS011;275;48.492;9.214;2024-03-22T06:39:15;13.95;;;12.65;;
577;SDS011;275;48.492;9.214;2024-03-22T06:41:43;14.70;;;13.20;;
577;SDS011;275;48.492;9.214;2024-03-22T06:44:11;14.57;;;13.27;;
577;SDS011;275;48.492;9.214;2024-03-22T06:46:39;14.50;;;13.20;;
577;SDS011;275;48.492;9.214;2024-03-22T06:49:06;13.90;;;12.50;;
577;SDS011;275;48.492;9.214;2024-03-22T06:51:31;14.03;;;12.73;;
577;SDS011;275;48.492;9.214;2024-03-22T06:53:58;14.32;;;12.93;;
577;SDS011;275;48.492;9.214;2024-03-22T06:56:24;16.40;;;14.80;;
577;SDS011;275;48.492;9.214;2024-03-22T06:58:52;17.35;;;14.05;;
577;SDS011;275;48.492;9.214;2024-03-22T07:01:18;17.33;;;15.50;;
577;SDS011;275;48.492;9.214;2024-03-22T07:03:45;18.27;;;14.38;;
577;SDS011;275;48.492;9.214;2024-03-22T07:06:12;15.57;;;13.80;;
577;SDS011;275;48.492;9.214;2024-03-22T07:08:39;14.95;;;13.60;;
577;SDS011;275;48.492;9.214;2024-03-22T07:11:05;15.60;;;13.93;;
577;SDS011;275;48.492;9.214;2024-03-22T07:13:33;14.35;;;12.80;;
577;SDS011;275;48.492;9.214;2024-03-22T07:16:01;12.77;;;11.57;;
577;SDS011;275;48.492;9.214;2024-03-22T07:18:29;12.30;;;11.20;;
577;SDS011;275;48.492;9.214;2024-03-22T07:20:55;12.57;;;11.37;;
577;SDS011;275;48.492;9.214;2024-03-22T07:23:23;12.50;;;11.30;;
577;SDS011;275;48.492;9.214;2024-03-22T07:25:48;13.90;;;12.30;;
577;SDS011;275;48.492;9.214;2024-03-22T07:28:15;12.87;;;11.67;;
577;SDS011;275;48.492;9.214;2024-03-22T07:30:41;12.60;;;11.20;;
577;SDS011;275;48.492;9.214;2024-03-22T07:33:10;14.07;;;12.77;;
577;SDS011;275;48.492;9.214;2024-03-22T07:35:38;12.40;;;11.00;;
577;SDS011;275;48.492;9.214;2024-03-22T07:38:05;14.53;;;13.00;;
577;SDS011;275;48.492;9.214;2024-03-22T07:40:31;13.30;;;12.00;;
577;SDS011;275;48.492;9.214;2024-03-22T07:42:57;12.50;;;11.20;;
577;SDS011;275;48.492;9.214;2024-03-22T07:45:24;12.40;;;11.30;;
577;SDS011;275;48.492;9.214;2024-03-22T07:47:51;11.90;;;10.83;;
577;SDS011;275;48.492;9.214;2024-03-22T07:50:18;12.47;;;11.27;;
577;SDS011;275;48.492;9.214;2024-03-22T07:52:45;13.32;;;12.10;;
577;SDS011;275;48.492;9.214;2024-03-22T07:55:10;14.17;;;12.67;;
577;SDS011;275;48.492;9.214;2024-03-22T07:57:37;14.13;;;12.73;;
577;SDS011;275;48.492;9.214;2024-03-22T08:00:03;13.17;;;11.93;;
577;SDS011;275;48.492;9.214;2024-03-22T08:02:32;13.90;;;12.53;;
577;SDS011;275;48.492;9.214;2024-03-22T08:04:57;15.27;;;13.70;;
577;SDS011;275;48.492;9.214;2024-03-22T08:07:26;13.50;;;12.10;;
577;SDS011;275;48.492;9.214;2024-03-22T08:09:51;13.80;;;12.40;;
577;SDS011;275;48.492;9.214;2024-03-22T08:12:20;15.13;;;11.50;;
577;SDS011;275;48.492;9.214;2024-03-22T08:14:46;16.63;;;12.47;;
577;SDS011;275;48.492;9.214;2024-03-22T08:17:13;16.43;;;11.93;;
577;SDS011;275;48.492;9.214;2024-03-22T08:19:40;12.20;;;11.00;;
577;SDS011;275;48.492;9.214;2024-03-22T08:22:06;12.53;;;11.33;;
577;SDS011;275;48.492;9.214;2024-03-22T08:24:33;13.20;;;11.90;;
577;SDS011;275;48.492;9.214;2024-03-22T08:27:00;11.20;;;10.00;;
577;SDS011;275;48.492;9.214;2024-03-22T08:29:26;13.63;;;11.60;;
577;SDS011;275;48.492;9.214;2024-03-22T08:31:53;11.90;;;10.70;;
577;SDS011;275;48.492;9.214;2024-03-22T08:34:19;10.83;;;9.50;;
577;SDS011;275;48.492;9.214;2024-03-22T08:36:46;10.93;;;9.80;;
577;SDS011;275;48.492;9.214;2024-03-22T08:39:12;13.80;;;10.17;;
577;SDS011;275;48.492;9.214;2024-03-22T08:41:41;11.63;;;10.33;;
577;SDS011;275;48.492;9.214;2024-03-22T08:44:07;11.40;;;10.27;;
577;SDS011;275;48.492;9.214;2024-03-22T08:46:34;11.70;;;9.80;;
577;SDS011;275;48.492;9.214;2024-03-22T08:49:01;11.73;;;9.90;;
577;SDS011;275;48.492;9.214;2024-03-22T08:51:28;11.27;;;8.90;;
577;SDS011;275;48.492;9.214;2024-03-22T08:53:54;11.63;;;10.43;;
577;SDS011;275;48.492;9.214;2024-03-22T08:56:21;10.53;;;9.00;;
577;SDS011;275;48.492;9.214;2024-03-22T08:58:48;9.67;;;8.67;;
577;SDS011;275;48.492;9.214;2024-03-22T09:01:15;10.60;;;9.47;;
577;SDS011;275;48.492;9.214;2024-03-22T09:03:41;12.23;;;9.03;;
577;SDS011;275;48.492;9.214;2024-03-22T09:06:11;10.93;;;9.83;;
577;SDS011;275;48.492;9.214;2024-03-22T09:08:37;12.03;;;9.63;;
577;SDS011;275;48.492;9.214;2024-03-22T09:11:03;11.00;;;9.80;;
577;SDS011;275;48.492;9.214;2024-03-22T09:13:29;11.07;;;9.97;;
577;SDS011;275;48.492;9.214;2024-03-22T09:15:58;9.27;;;8.30;;
577;SDS011;275;48.492;9.214;2024-03-22T09:18:24;8.57;;;7.67;;
577;SDS011;275;48.492;9.214;2024-03-22T09:20:51;9.47;;;8.43;;
577;SDS011;275;48.492;9.214;2024-03-22T09:23:18;8.50;;;7.60;;
577;SDS011;275;48.492;9.214;2024-03-22T09:25:45;12.60;;;8.63;;
577;SDS011;275;48.492;9.214;2024-03-22T09:28:11;9.47;;;8.50;;
577;SDS011;275;48.492;9.214;2024-03-22T09:30:38;9.77;;;8.77;;
577;SDS011;275;48.492;9.214;2024-03-22T09:33:05;10.80;;;9.17;;
577;SDS011;275;48.492;9.214;2024-03-22T09:35:33;9.07;;;7.87;;
577;SDS011;275;48.492;9.214;2024-03-22T09:37:59;9.37;;;8.17;;
577;SDS011;275;48.492;9.214;2024-03-22T09:40:26;10.80;;;9.57;;
577;SDS011;275;48.492;9.214;2024-03-22T09:42:52;9.80;;;8.80;;
577;SDS011;275;48.492;9.214;2024-03-22T09:45:19;8.27;;;7.43;;
577;SDS011;275;48.492;9.214;2024-03-22T09:47:46;11.67;;;8.10;;
577;SDS011;275;48.492;9.214;2024-03-22T09:50:17;9.10;;;8.10;;
577;SDS011;275;48.492;9.214;2024-03-22T09:52:43;9.23;;;8.00;;
577;SDS011;275;48.492;9.214;2024-03-22T09:55:11;9.77;;;7.67;;
577;SDS011;275;48.492;9.214;2024-03-22T09:57:38;8.97;;;7.30;;
577;SDS011;275;48.492;9.214;2024-03-22T10:00:08;9.93;;;7.70;;
577;SDS011;275;48.492;9.214;2024-03-22T10:02:35;9.27;;;7.20;;
577;SDS011;275;48.492;9.214;2024-03-22T10:05:03;8.27;;;7.30;;
577;SDS011;275;48.492;9.214;2024-03-22T10:07:30;8.70;;;7.80;;
577;SDS011;275;48.492;9.214;2024-03-22T10:09:58;8.80;;;7.13;;
577;SDS011;275;48.492;9.214;2024-03-22T10:12:24;8.17;;;6.87;;
577;SDS011;275;48.492;9.214;2024-03-22T10:14:52;9.57;;;7.93;;
577;SDS011;275;48.492;9.214;2024-03-22T10:17:18;10.10;;;8.20;;
577;SDS011;275;48.492;9.214;2024-03-22T10:19:45;9.63;;;8.13;;
577;SDS011;275;48.492;9.214;2024-03-22T10:22:11;8.63;;;7.60;;
577;SDS011;275;48.492;9.214;2024-03-22T10:24:39;9.20;;;6.50;;
577;SDS011;275;48.492;9.214;2024-03-22T10:27:05;9.23;;;7.13;;
577;SDS011;275;48.492;9.214;2024-03-22T10:29:31;10.13;;;7.50;;
577;SDS011;275;48.492;9.214;2024-03-22T10:31:58;8.57;;;7.17;;
577;SDS011;275;48.492;9.214;2024-03-22T10:34:27;9.90;;;7.80;;
577;SDS011;275;48.492;9.214;2024-03-22T10:36:55;7.97;;;6.60;;
577;SDS011;275;48.492;9.214;2024-03-22T10:39:22;9.07;;;6.33;;
577;SDS011;275;48.492;9.214;2024-03-22T10:41:51;8.60;;;6.47;;
577;SDS011;275;48.492;9.214;2024-03-22T10:44:19;10.40;;;6.30;;
577;SDS011;275;48.492;9.214;2024-03-22T10:46:46;7.83;;;6.13;;
577;SDS011;275;48.492;9.214;2024-03-22T10:51:41;8.83;;;6.60;;
577;SDS011;275;48.492;9.214;2024-03-22T10:54:10;8.20;;;6.27;;
577;SDS011;275;48.492;9.214;2024-03-22T10:56:39;9.53;;;6.57;;
577;SDS011;275;48.492;9.214;2024-03-22T10:59:08;6.80;;;5.63;;
577;SDS011;275;48.492;9.214;2024-03-22T11:01:37;6.67;;;5.33;;
577;SDS011;275;48.492;9.214;2024-03-22T11:04:04;7.67;;;5.30;;
577;SDS011;275;48.492;9.214;2024-03-22T11:06:31;8.27;;;5.60;;
577;SDS011;275;48.492;9.214;2024-03-22T11:08:59;9.93;;;7.47;;
577;SDS011;275;48.492;9.214;2024-03-22T11:11:27;7.73;;;5.00;;
577;SDS011;275;48.492;9.214;2024-03-22T11:13:54;6.50;;;4.67;;
577;SDS011;275;48.492;9.214;2024-03-22T11:16:22;7.20;;;5.33;;
577;SDS011;275;48.492;9.214;2024-03-22T11:18:49;8.07;;;4.93;;
577;SDS011;275;48.492;9.214;2024-03-22T11:21:15;8.53;;;5.57;;
577;SDS011;275;48.492;9.214;2024-03-22T11:23:44;6.63;;;4.93;;
577;SDS011;275;48.492;9.214;2024-03-22T11:26:10;6.17;;;5.33;;
577;SDS011;275;48.492;9.214;2024-03-22T11:28:37;6.53;;;4.47;;
577;SDS011;275;48.492;9.214;2024-03-22T11:31:03;6.43;;;5.17;;
577;SDS011;275;48.492;9.214;2024-03-22T11:33:31;6.00;;;4.10;;
577;SDS011;275;48.492;9.214;2024-03-22T11:35:58;8.00;;;5.90;;
577;SDS011;275;48.492;9.214;2024-03-22T11:38:25;7.63;;;5.00;;
577;SDS011;275;48.492;9.214;2024-03-22T11:40:52;7.03;;;5.17;;
577;SDS011;275;48.492;9.214;2024-03-22T11:43:21;6.17;;;4.90;;
577;SDS011;275;48.492;9.214;2024-03-22T11:45:47;6.20;;;5.10;;
577;SDS011;275;48.492;9.214;2024-03-22T11:48:14;7.20;;;5.20;;
577;SDS011;275;48.492;9.214;2024-03-22T11:50:42;9.87;;;5.90;;
577;SDS011;275;48.492;9.214;2024-03-22T11:53:09;6.60;;;5.20;;
577;SDS011;275;48.492;9.214;2024-03-22T11:55:35;7.53;;;5.40;;
577;SDS011;275;48.492;9.214;2024-03-22T11:58:02;5.80;;;4.50;;
577;SDS011;275;48.492;9.214;2024-03-22T12:00:28;6.20;;;4.77;;
577;SDS011;275;48.492;9.214;2024-03-22T12:02:55;9.10;;;5.20;;
577;SDS011;275;48.492;9.214;2024-03-22T12:05:21;6.20;;;4.30;;
577;SDS011;275;48.492;9.214;2024-03-22T12:07:50;6.00;;;5.03;;
577;SDS011;275;48.492;9.214;2024-03-22T12:10:16;6.87;;;4.97;;
577;SDS011;275;48.492;9.214;2024-03-22T12:12:43;8.10;;;4.77;;
577;SDS011;275;48.492;9.214;2024-03-22T12:15:09;6.30;;;4.40;;
577;SDS011;275;48.492;9.214;2024-03-22T12:17:36;6.50;;;5.10;;
577;SDS011;275;48.492;9.214;2024-03-22T12:20:02;6.13;;;5.17;;
577;SDS011;275;48.492;9.214;2024-03-22T12:22:30;5.40;;;4.37;;
577;SDS011;275;48.492;9.214;2024-03-22T12:24:57;5.97;;;4.27;;
577;SDS011;275;48.492;9.214;2024-03-22T12:27:24;6.17;;;4.63;;
577;SDS011;275;48.492;9.214;2024-03-22T12:29:50;6.77;;;4.83;;
577;SDS011;275;48.492;9.214;2024-03-22T12:32:17;6.70;;;4.90;;
577;SDS011;275;48.492;9.214;2024-03-22T12:34:43;6.70;;;5.40;;
577;SDS011;275;48.492;9.214;2024-03-22T12:37:10;7.60;;;3.83;;
577;SDS011;275;48.492;9.214;2024-03-22T12:39:36;6.43;;;2.97;;
577;SDS011;275;48.492;9.214;2024-03-22T12:42:04;4.43;;;2.73;;
577;SDS011;275;48.492;9.214;2024-03-22T12:44:31;5.03;;;3.03;;
577;SDS011;275;48.492;9.214;2024-03-22T12:46:57;4.17;;;2.63;;
577;SDS011;275;48.492;9.214;2024-03-22T12:49:24;5.00;;;3.37;;
577;SDS011;275;48.492;9.214;2024-03-22T12:51:50;6.83;;;3.33;;
577;SDS011;275;48.492;9.214;2024-03-22T12:54:16;6.03;;;4.47;;
577;SDS011;275;48.492;9.214;2024-03-22T12:56:45;6.33;;;3.50;;
577;SDS011;275;48.492;9.214;2024-03-22T12:59:16;6.30;;;4.93;;
577;SDS011;275;48.492;9.214;2024-03-22T13:01:47;5.57;;;3.97;;
577;SDS011;275;48.492;9.214;2024-03-22T13:04:13;5.70;;;3.77;;
577;SDS011;275;48.492;9.214;2024-03-22T13:06:40;5.40;;;3.53;;
577;SDS011;275;48.492;9.214;2024-03-22T13:09:06;4.60;;;3.37;;
577;SDS011;275;48.492;9.214;2024-03-22T13:11:34;6.50;;;3.60;;
577;SDS011;275;48.492;9.214;2024-03-22T13:14:00;5.37;;;3.13;;
577;SDS011;275;48.492;9.214;2024-03-22T13:16:30;5.80;;;3.40;;
577;SDS011;275;48.492;9.214;2024-03-22T13:18:56;5.73;;;2.93;;
577;SDS011;275;48.492;9.214;2024-03-22T13:21:29;5.17;;;3.07;;
577;SDS011;275;48.492;9.214;2024-03-22T13:23:56;4.27;;;2.43;;
577;SDS011;275;48.492;9.214;2024-03-22T13:26:23;4.63;;;2.40;;
577;SDS011;275;48.492;9.214;2024-03-22T13:28:52;7.03;;;3.60;;
577;SDS011;275;48.492;9.214;2024-03-22T13:31:22;3.70;;;2.20;;
577;SDS011;275;48.492;9.214;2024-03-22T13:33:49;5.13;;;2.60;;
577;SDS011;275;48.492;9.214;2024-03-22T13:36:16;5.40;;;2.87;;
577;SDS011;275;48.492;9.214;2024-03-22T13:38:43;6.73;;;3.00;;
577;SDS011;275;48.492;9.214;2024-03-22T13:41:10;4.20;;;2.53;;
577;SDS011;275;48.492;9.214;2024-03-22T13:43:36;4.00;;;2.20;;
577;SDS011;275;48.492;9.214;2024-03-22T13:46:05;3.57;;;2.30;;
577;SDS011;275;48.492;9.214;2024-03-22T13:48:30;4.13;;;2.40;;
577;SDS011;275;48.492;9.214;2024-03-22T13:50:59;4.37;;;3.07;;
577;SDS011;275;48.492;9.214;2024-03-22T13:53:26;5.13;;;2.63;;
577;SDS011;275;48.492;9.214;2024-03-22T13:55:53;4.00;;;2.20;;
577;SDS011;275;48.492;9.214;2024-03-22T13:58:19;4.67;;;2.00;;
577;SDS011;275;48.492;9.214;2024-03-22T14:00:46;5.93;;;1.70;;
577;SDS011;275;48.492;9.214;2024-03-22T14:03:12;3.10;;;1.50;;
577;SDS011;275;48.492;9.214;2024-03-22T14:05:39;3.00;;;1.60;;
577;SDS011;275;48.492;9.214;2024-03-22T14:08:06;3.63;;;1.83;;
577;SDS011;275;48.492;9.214;2024-03-22T14:10:33;4.17;;;2.23;;
577;SDS011;275;48.492;9.214;2024-03-22T14:12:59;3.93;;;1.77;;
577;SDS011;275;48.492;9.214;2024-03-22T14:15:27;5.80;;;2.27;;
577;SDS011;275;48.492;9.214;2024-03-22T14:17:56;4.30;;;1.70;;
577;SDS011;275;48.492;9.214;2024-03-22T14:20:24;3.60;;;1.80;;
577;SDS011;275;48.492;9.214;2024-03-22T14:22:50;4.27;;;2.20;;
577;SDS011;275;48.492;9.214;2024-03-22T14:25:18;3.40;;;1.67;;
577;SDS011;275;48.492;9.214;2024-03-22T14:27:45;3.47;;;1.80;;
577;SDS011;275;48.492;9.214;2024-03-22T14:30:14;4.23;;;1.90;;
577;SDS011;275;48.492;9.214;2024-03-22T14:32:40;4.10;;;1.80;;
577;SDS011;275;48.492;9.214;2024-03-22T14:35:10;4.53;;;2.00;;
577;SDS011;275;48.492;9.214;2024-03-22T14:37:38;5.23;;;2.37;;
577;SDS011;275;48.492;9.214;2024-03-22T14:40:05;7.10;;;1.93;;
577;SDS011;275;48.492;9.214;2024-03-22T14:42:36;5.93;;;2.20;;
577;SDS011;275;48.492;9.214;2024-03-22T14:45:03;4.97;;;1.80;;
577;SDS011;275;48.492;9.214;2024-03-22T14:47:30;3.73;;;1.70;;
577;SDS011;275;48.492;9.214;2024-03-22T14:49:56;5.90;;;2.43;;
577;SDS011;275;48.492;9.214;2024-03-22T14:52:22;3.80;;;1.60;;
577;SDS011;275;48.492;9.214;2024-03-22T14:54:51;4.37;;;2.23;;
577;SDS011;275;48.492;9.214;2024-03-22T14:57:17;3.20;;;1.47;;
577;SDS011;275;48.492;9.214;2024-03-22T14:59:45;4.77;;;1.50;;
577;SDS011;275;48.492;9.214;2024-03-22T15:02:13;4.03;;;1.50;;
577;SDS011;275;48.492;9.214;2024-03-22T15:04:39;4.03;;;1.57;;
577;SDS011;275;48.492;9.214;2024-03-22T15:07:05;3.00;;;1.50;;
577;SDS011;275;48.492;9.214;2024-03-22T15:09:32;3.27;;;1.70;;
577;SDS011;275;48.492;9.214;2024-03-22T15:11:58;3.00;;;1.50;;
577;SDS011;275;48.492;9.214;2024-03-22T15:14:25;3.43;;;1.77;;
577;SDS011;275;48.492;9.214;2024-03-22T15:16:55;3.37;;;1.70;;
577;SDS011;275;48.492;9.214;2024-03-22T15:19:22;3.30;;;1.90;;
577;SDS011;275;48.492;9.214;2024-03-22T15:21:48;4.07;;;1.80;;
577;SDS011;275;48.492;9.214;2024-03-22T15:24:15;3.30;;;1.50;;
577;SDS011;275;48.492;9.214;2024-03-22T15:26:41;5.03;;;2.43;;